Terminal Aerodrome Forecast
Issued by NWS

Home | Current Version | Previous Version | Text Only | Print | Product List | Glossary On
Versions: 1 2 3 4 5 6 7 8 9 10 11 12 13 14 15 16 17 18 19
000
FTAK31 PAJN 230800 AAA
TAFAYA
TAF AMD
PAYA 230805Z 2308/2406 VRB04KT P6SM SCT100
      TEMPO 2308/2312 00000KT 2SM BR BKN008
     FM231500 09004KT P6SM VCSH BKN050 OVC080
     FM231800 12006KT 6SM -RA BKN025 OVC050
     FM240300 14006KT P6SM -RA SCT025 OVC040
      AMD LTD TO CLD VIS AND WIND 2308/2310=

USA.gov is the U.S. government's official web portal to all federal, state and local government web resources and services.